createdAt,value
2018-10-06T00:01:51.699Z,32.50
2018-10-06T00:04:42.778Z,33.02
2018-10-06T00:07:33.955Z,33.02
2018-10-06T00:10:27.513Z,32.90
2018-10-06T00:13:19.037Z,33.55
2018-10-06T00:16:10.320Z,32.60
2018-10-06T00:19:02.256Z,31.87
2018-10-06T00:21:53.260Z,31.80
2018-10-06T00:24:44.329Z,31.45
2018-10-06T00:27:35.706Z,30.77
2018-10-06T00:30:27.257Z,33.33
2018-10-06T00:33:19.517Z,34.03
2018-10-06T00:36:10.710Z,34.98
2018-10-06T00:39:01.895Z,37.23
2018-10-06T00:41:57.101Z,38.20
2018-10-06T00:44:48.589Z,38.53
2018-10-06T00:47:41.584Z,38.23
2018-10-06T00:50:33.852Z,36.53
2018-10-06T00:53:28.709Z,35.52
2018-10-06T00:56:19.874Z,38.20
2018-10-06T00:59:11.530Z,38.53
2018-10-06T01:02:02.586Z,40.65
2018-10-06T01:04:54.145Z,38.33
2018-10-06T01:07:45.111Z,38.33
2018-10-06T01:10:36.236Z,37.50
2018-10-06T01:13:27.347Z,37.63
2018-10-06T01:16:18.315Z,38.95
2018-10-06T01:19:10.403Z,40.25
2018-10-06T01:22:01.446Z,41.83
2018-10-06T01:24:52.978Z,44.45
2018-10-06T01:27:44.044Z,46.28
2018-10-06T01:30:34.945Z,47.98
2018-10-06T01:33:26.693Z,44.75
2018-10-06T01:36:18.832Z,44.23
2018-10-06T01:39:10.858Z,41.23
2018-10-06T01:42:04.018Z,41.98
2018-10-06T01:44:55.004Z,38.02
2018-10-06T01:47:46.005Z,37.00
2018-10-06T01:50:36.694Z,36.40
2018-10-06T01:53:28.113Z,39.13
2018-10-06T01:56:19.313Z,43.78
2018-10-06T01:59:10.623Z,44.13
2018-10-06T02:02:01.255Z,48.20
2018-10-06T02:04:52.663Z,46.42
2018-10-06T02:07:43.727Z,45.80
2018-10-06T02:10:35.694Z,45.23
2018-10-06T02:13:26.860Z,42.95
2018-10-06T02:16:17.396Z,44.20
2018-10-06T02:19:08.723Z,45.58
2018-10-06T02:22:02.234Z,46.45
2018-10-06T02:24:53.284Z,50.03
2018-10-06T02:27:47.385Z,45.45
2018-10-06T02:30:37.866Z,45.92
2018-10-06T02:33:29.784Z,40.40
2018-10-06T02:36:21.188Z,37.42
2018-10-06T02:39:12.298Z,38.90
2018-10-06T02:42:04.020Z,41.88
2018-10-06T02:44:55.170Z,39.55
2018-10-06T02:47:46.804Z,40.08
2018-10-06T02:50:37.513Z,30.35
2018-10-06T02:53:30.097Z,30.70
2018-10-06T02:56:21.765Z,31.80
2018-10-06T02:59:13.318Z,32.05
2018-10-06T03:02:04.349Z,34.70
2018-10-06T03:04:56.130Z,33.18
2018-10-06T03:07:47.108Z,35.28
2018-10-06T03:10:37.864Z,33.55
2018-10-06T03:13:30.391Z,35.15
2018-10-06T03:16:22.058Z,38.98
2018-10-06T03:19:12.923Z,37.95
2018-10-06T03:22:04.779Z,38.42
2018-10-06T03:24:57.309Z,38.10
2018-10-06T03:27:47.910Z,37.70
2018-10-06T03:30:39.121Z,38.50
2018-10-06T03:33:30.927Z,41.42
2018-10-06T03:36:22.392Z,43.42
2018-10-06T03:39:14.201Z,41.40
2018-10-06T03:42:05.278Z,42.80
2018-10-06T03:44:57.391Z,42.00
2018-10-06T03:47:50.432Z,37.78
2018-10-06T03:50:42.263Z,38.20
2018-10-06T03:53:33.593Z,33.83
2018-10-06T03:56:24.937Z,29.30
2018-10-06T03:59:17.118Z,27.80
2018-10-06T04:02:08.893Z,32.60
2018-10-06T04:05:00.497Z,29.12
2018-10-06T04:07:52.060Z,28.38
2018-10-06T04:10:43.078Z,28.75
2018-10-06T04:13:35.468Z,27.70
2018-10-06T04:16:26.937Z,35.35
2018-10-06T04:19:18.250Z,32.67
2018-10-06T04:22:09.758Z,33.23
2018-10-06T04:25:01.084Z,30.37
2018-10-06T04:27:52.985Z,30.77
2018-10-06T04:30:44.224Z,33.65
2018-10-06T04:33:36.770Z,34.40
2018-10-06T04:36:27.951Z,35.60
2018-10-06T04:39:19.439Z,36.65
2018-10-06T04:42:09.857Z,39.63
2018-10-06T04:45:01.456Z,38.90
2018-10-06T04:47:54.152Z,43.58
2018-10-06T04:50:45.039Z,44.15
2018-10-06T04:53:36.032Z,42.70
2018-10-06T04:56:26.792Z,42.75
2018-10-06T04:59:18.226Z,42.78
2018-10-06T05:02:09.537Z,39.18
2018-10-06T05:05:00.885Z,39.48
2018-10-06T05:07:54.209Z,38.10
2018-10-06T05:10:46.053Z,35.08
2018-10-06T05:13:39.654Z,39.00
2018-10-06T05:16:32.756Z,44.35
2018-10-06T05:19:28.207Z,44.85
2018-10-06T05:22:21.776Z,41.90
2018-10-06T05:25:16.132Z,52.80
2018-10-06T05:28:13.002Z,43.98
2018-10-06T05:31:26.460Z,43.15
2018-10-06T05:34:38.579Z,41.30
2018-10-06T05:37:47.568Z,44.27
2018-10-06T05:40:46.177Z,41.18
2018-10-06T05:43:48.719Z,41.45
2018-10-06T05:47:17.548Z,43.30
2018-10-06T05:50:47.280Z,43.60
2018-10-06T05:53:51.640Z,43.48
2018-10-06T05:57:15.017Z,44.05
2018-10-06T06:00:14.875Z,48.55
2018-10-06T06:03:14.945Z,49.00
2018-10-06T06:06:14.479Z,46.00
2018-10-06T06:09:12.241Z,43.55
2018-10-06T06:12:10.079Z,44.88
2018-10-06T06:15:08.714Z,43.83
2018-10-06T06:18:05.729Z,43.42
2018-10-06T06:21:02.090Z,42.95
2018-10-06T06:24:06.676Z,43.40
2018-10-06T06:27:06.777Z,42.20
2018-10-06T06:30:11.387Z,41.88
2018-10-06T06:33:17.224Z,44.15
2018-10-06T06:36:15.671Z,40.00
2018-10-06T06:39:14.856Z,43.05
2018-10-06T06:42:13.065Z,43.58
2018-10-06T06:45:09.826Z,42.90
2018-10-06T06:48:14.276Z,39.33
2018-10-06T06:51:17.970Z,40.67
2018-10-06T06:54:16.990Z,40.98
2018-10-06T06:57:15.071Z,39.45
2018-10-06T07:00:16.482Z,39.70
2018-10-06T07:03:18.917Z,40.58
2018-10-06T07:06:12.955Z,41.35
2018-10-06T07:09:06.617Z,42.00
2018-10-06T07:12:06.783Z,41.92
2018-10-06T07:15:05.921Z,42.00
2018-10-06T07:18:12.388Z,42.13
2018-10-06T07:21:18.337Z,43.02
2018-10-06T07:24:13.881Z,41.77
2018-10-06T07:27:08.397Z,43.33
2018-10-06T07:30:08.833Z,40.88
2018-10-06T07:33:08.859Z,39.58
2018-10-06T07:36:05.667Z,42.03
2018-10-06T07:39:09.399Z,42.25
2018-10-06T07:42:05.195Z,41.55
2018-10-06T07:45:03.365Z,40.58
2018-10-06T07:48:08.257Z,42.17
2018-10-06T07:51:09.034Z,40.92
2018-10-06T07:54:08.455Z,42.80
2018-10-06T07:57:05.972Z,43.38
2018-10-06T08:00:00.353Z,42.13
2018-10-06T08:02:54.915Z,54.40
2018-10-06T08:05:51.196Z,53.42
2018-10-06T08:08:47.357Z,49.30
2018-10-06T08:11:40.300Z,48.92
2018-10-06T08:14:35.401Z,50.95
2018-10-06T08:17:28.735Z,55.50
2018-10-06T08:20:23.844Z,65.62
2018-10-06T08:23:22.542Z,57.23
2018-10-06T08:26:26.661Z,57.48
2018-10-06T08:29:32.575Z,55.30
2018-10-06T08:32:25.749Z,52.50
2018-10-06T08:35:20.512Z,52.78
2018-10-06T08:38:13.622Z,58.83
2018-10-06T08:41:08.929Z,54.95
2018-10-06T08:44:02.405Z,49.18
2018-10-06T08:46:55.520Z,51.83
2018-10-06T08:49:47.794Z,52.62
2018-10-06T08:52:39.019Z,52.60
2018-10-06T08:55:31.433Z,52.23
2018-10-06T09:01:46.429Z,50.78
2018-10-06T09:04:43.255Z,48.08
2018-10-06T09:07:48.661Z,50.05
2018-10-06T09:10:40.612Z,49.42
2018-10-06T09:13:33.780Z,49.00
2018-10-06T09:16:28.324Z,48.02
2018-10-06T09:19:21.952Z,50.63
2018-10-06T09:22:18.140Z,48.68
2018-10-06T09:25:15.666Z,47.43
2018-10-06T09:28:12.009Z,45.73
2018-10-06T09:31:09.934Z,44.77
2018-10-06T09:34:03.852Z,42.05
2018-10-06T09:38:22.026Z,38.45
2018-10-06T09:41:17.470Z,38.13
2018-10-06T09:44:12.801Z,35.83
2018-10-06T09:47:08.498Z,33.02
2018-10-06T09:50:08.484Z,32.05
2018-10-06T09:53:05.473Z,29.63
2018-10-06T09:56:01.791Z,31.60
2018-10-06T09:58:57.788Z,28.30
2018-10-06T10:02:00.538Z,31.27
2018-10-06T10:04:54.835Z,30.00
2018-10-06T10:07:50.780Z,28.55
2018-10-06T10:10:51.444Z,29.05
2018-10-06T10:13:52.522Z,30.85
2018-10-06T10:16:48.687Z,31.20
2018-10-06T10:19:42.534Z,30.30
2018-10-06T10:22:44.740Z,31.55
2018-10-06T10:25:41.857Z,30.00
2018-10-06T10:28:41.757Z,28.92
2018-10-06T10:31:35.969Z,24.15
2018-10-06T10:34:30.652Z,25.25
2018-10-06T10:40:33.943Z,27.17
2018-10-06T10:43:29.162Z,22.85
2018-10-06T10:46:26.652Z,24.52
2018-10-06T10:49:27.025Z,23.92
2018-10-06T10:52:21.994Z,25.48
2018-10-06T10:55:15.309Z,26.37
2018-10-06T10:58:16.107Z,25.60
2018-10-06T11:01:17.056Z,24.90
2018-10-06T11:04:20.194Z,27.95
2018-10-06T11:07:18.891Z,27.25
2018-10-06T11:10:17.932Z,26.30
2018-10-06T11:13:14.839Z,27.50
2018-10-06T11:16:14.476Z,28.83
2018-10-06T11:19:14.527Z,28.15
2018-10-06T11:22:17.514Z,27.90
2018-10-06T11:25:16.867Z,28.17
2018-10-06T11:28:14.549Z,26.97
2018-10-06T11:31:13.306Z,26.17
2018-10-06T11:34:13.783Z,27.05
2018-10-06T11:37:14.419Z,27.60
2018-10-06T11:40:12.075Z,28.02
2018-10-06T11:43:11.340Z,27.13
2018-10-06T11:46:06.214Z,28.73
2018-10-06T11:49:04.135Z,28.30
2018-10-06T11:51:58.850Z,29.65
2018-10-06T11:54:55.619Z,26.60
2018-10-06T11:57:49.230Z,25.82
2018-10-06T12:00:46.022Z,25.88
2018-10-06T12:03:43.777Z,25.25
2018-10-06T12:06:42.642Z,29.70
2018-10-06T12:09:42.623Z,30.77
2018-10-06T12:12:40.133Z,30.25
2018-10-06T12:15:34.235Z,30.48
2018-10-06T12:18:33.808Z,29.18
2018-10-06T12:21:27.805Z,30.12
2018-10-06T12:24:21.373Z,30.20
2018-10-06T12:27:25.494Z,30.52
2018-10-06T12:30:35.429Z,30.65
2018-10-06T12:33:27.692Z,34.08
2018-10-06T12:36:21.164Z,34.85
2018-10-06T12:39:14.252Z,33.45
2018-10-06T12:42:05.938Z,34.95
2018-10-06T12:44:59.903Z,34.70
2018-10-06T12:47:52.482Z,34.83
2018-10-06T12:50:43.688Z,36.80
2018-10-06T12:53:36.188Z,37.28
2018-10-06T12:56:30.028Z,37.70
2018-10-06T12:59:22.525Z,36.00
2018-10-06T13:02:19.746Z,38.42
2018-10-06T13:05:20.379Z,37.88
2018-10-06T13:08:13.216Z,37.33
2018-10-06T13:11:07.454Z,41.02
2018-10-06T13:14:01.531Z,41.73
2018-10-06T13:17:00.563Z,40.90
2018-10-06T13:19:58.154Z,41.28
2018-10-06T13:25:58.740Z,45.40
2018-10-06T13:28:53.452Z,44.25
2018-10-06T13:31:45.419Z,41.83
2018-10-06T13:34:41.930Z,37.38
2018-10-06T13:37:38.308Z,42.30
2018-10-06T13:40:29.555Z,44.50
2018-10-06T13:43:21.653Z,45.60
2018-10-06T13:46:13.772Z,49.20
2018-10-06T13:49:05.943Z,43.15
2018-10-06T13:52:03.437Z,43.40
2018-10-06T13:54:58.708Z,42.48
2018-10-06T13:57:52.694Z,42.80
2018-10-06T14:00:45.826Z,43.85
2018-10-06T14:03:37.587Z,44.23
2018-10-06T14:06:31.531Z,44.88
2018-10-06T14:09:22.761Z,42.38
2018-10-06T14:12:20.092Z,43.50
2018-10-06T14:15:11.857Z,44.38
2018-10-06T14:18:04.442Z,43.55
2018-10-06T14:20:58.441Z,45.23
2018-10-06T14:23:49.985Z,45.45
2018-10-06T14:26:42.825Z,45.05
2018-10-06T14:29:38.157Z,45.10
2018-10-06T14:32:29.869Z,47.35
2018-10-06T14:35:21.450Z,49.10
2018-10-06T14:38:14.829Z,48.87
2018-10-06T14:41:06.743Z,49.25
2018-10-06T14:43:58.072Z,51.10
2018-10-06T14:46:49.689Z,49.25
2018-10-06T14:49:40.653Z,50.17
2018-10-06T14:52:32.201Z,49.40
2018-10-06T14:55:24.507Z,50.80
2018-10-06T14:58:15.381Z,51.70
2018-10-06T15:01:06.272Z,50.55
2018-10-06T15:04:00.129Z,50.40
2018-10-06T15:06:51.661Z,50.95
2018-10-06T15:09:42.859Z,51.77
2018-10-06T15:12:34.556Z,51.00
2018-10-06T15:15:27.604Z,49.55
2018-10-06T15:18:20.128Z,51.02
2018-10-06T15:21:11.592Z,49.48
2018-10-06T15:24:03.254Z,49.80
2018-10-06T15:26:54.155Z,52.00
2018-10-06T15:29:45.598Z,51.88
2018-10-06T15:32:36.493Z,52.43
2018-10-06T15:35:27.463Z,52.35
2018-10-06T15:38:18.201Z,52.55
2018-10-06T15:41:09.787Z,51.05
2018-10-06T15:44:00.778Z,51.15
2018-10-06T15:46:52.249Z,53.52
2018-10-06T15:49:43.979Z,51.92
2018-10-06T15:52:35.534Z,53.87
2018-10-06T15:55:27.059Z,53.05
2018-10-06T15:58:18.092Z,54.03
2018-10-06T16:01:08.836Z,54.67
2018-10-06T16:04:00.079Z,53.95
2018-10-06T16:06:50.758Z,56.20
2018-10-06T16:09:43.365Z,52.35
2018-10-06T16:12:34.720Z,51.08
2018-10-06T16:15:28.089Z,49.63
2018-10-06T16:18:20.201Z,51.83
2018-10-06T16:21:11.531Z,53.15
2018-10-06T16:24:05.480Z,49.42
2018-10-06T16:26:56.584Z,53.23
2018-10-06T16:29:47.626Z,54.70
2018-10-06T16:32:38.958Z,53.90
2018-10-06T16:35:29.905Z,52.73
2018-10-06T16:38:21.035Z,50.65
2018-10-06T16:41:12.682Z,52.58
2018-10-06T16:44:05.229Z,52.98
2018-10-06T16:46:55.923Z,54.38
2018-10-06T16:49:46.737Z,54.50
2018-10-06T16:52:40.219Z,53.63
2018-10-06T16:55:31.617Z,53.83
2018-10-06T16:58:23.338Z,58.48
2018-10-06T17:01:16.733Z,57.65
2018-10-06T17:04:08.273Z,56.25
2018-10-06T17:07:01.091Z,55.40
2018-10-06T17:09:53.238Z,59.93
2018-10-06T17:12:44.660Z,60.08
2018-10-06T17:15:35.989Z,61.37
2018-10-06T17:18:28.874Z,65.52
2018-10-06T17:21:20.159Z,61.70
2018-10-06T17:24:11.683Z,60.55
2018-10-06T17:27:04.908Z,58.38
2018-10-06T17:29:56.568Z,55.52
2018-10-06T17:32:47.321Z,56.90
2018-10-06T17:35:38.944Z,54.67
2018-10-06T17:38:33.975Z,55.98
2018-10-06T17:41:27.682Z,54.63
2018-10-06T17:44:20.009Z,60.88
2018-10-06T17:47:11.748Z,61.20
2018-10-06T17:50:05.802Z,63.75
2018-10-06T17:52:57.611Z,65.67
2018-10-06T17:55:48.419Z,62.05
2018-10-06T17:58:39.803Z,64.72
2018-10-06T18:01:32.510Z,62.70
2018-10-06T18:04:25.132Z,61.98
2018-10-06T18:07:16.256Z,65.42
2018-10-06T18:10:07.270Z,63.50
2018-10-06T18:12:58.555Z,67.55
2018-10-06T18:15:51.859Z,69.12
2018-10-06T18:18:44.800Z,71.25
2018-10-06T18:21:35.896Z,70.25
2018-10-06T18:24:27.409Z,73.80
2018-10-06T18:27:20.425Z,72.75
2018-10-06T18:30:13.649Z,74.75
2018-10-06T18:33:05.234Z,76.17
2018-10-06T18:35:56.272Z,72.22
2018-10-06T18:38:47.541Z,77.82
2018-10-06T18:41:38.087Z,83.30
2018-10-06T18:44:31.120Z,81.63
2018-10-06T18:47:22.228Z,81.72
2018-10-06T18:50:13.266Z,83.20
2018-10-06T18:53:05.383Z,81.45
2018-10-06T18:55:56.268Z,88.03
2018-10-06T18:58:47.541Z,87.08
2018-10-06T19:01:38.222Z,84.42
2018-10-06T19:04:29.166Z,84.77
2018-10-06T19:07:20.663Z,85.90
2018-10-06T19:10:11.692Z,87.60
2018-10-06T19:13:03.498Z,83.00
2018-10-06T19:15:58.699Z,82.42
2018-10-06T19:18:50.407Z,85.57
2018-10-06T19:21:41.356Z,80.67
2018-10-06T19:24:32.807Z,80.95
2018-10-06T19:27:24.436Z,83.30
2018-10-06T19:30:18.282Z,78.07
2018-10-06T19:33:10.072Z,73.02
2018-10-06T19:36:01.973Z,75.72
2018-10-06T19:38:52.741Z,74.30
2018-10-06T19:41:43.711Z,75.40
2018-10-06T19:44:34.545Z,76.72
2018-10-06T19:47:25.766Z,77.22
2018-10-06T19:50:16.327Z,73.30
2018-10-06T19:53:07.543Z,79.42
2018-10-06T19:55:58.670Z,75.97
2018-10-06T19:58:50.626Z,74.85
2018-10-06T20:01:41.673Z,75.85
2018-10-06T20:04:32.758Z,78.00
2018-10-06T20:07:24.567Z,77.17
2018-10-06T20:10:20.398Z,77.20
2018-10-06T20:13:11.289Z,78.17
2018-10-06T20:16:02.607Z,79.40
2018-10-06T20:18:55.197Z,82.27
2018-10-06T20:21:46.405Z,80.20
2018-10-06T20:24:38.139Z,81.45
2018-10-06T20:27:29.231Z,82.78
2018-10-06T20:30:20.022Z,80.38
2018-10-06T20:33:11.161Z,85.00
2018-10-06T20:36:02.705Z,84.90
2018-10-06T20:38:54.961Z,81.70
2018-10-06T20:41:45.909Z,81.22
2018-10-06T20:44:36.867Z,78.87
2018-10-06T20:47:28.115Z,77.27
2018-10-06T20:50:19.558Z,78.97
2018-10-06T20:53:10.425Z,80.83
2018-10-06T20:56:01.397Z,81.87
2018-10-06T20:58:53.123Z,81.50
2018-10-06T21:01:43.940Z,80.38
2018-10-06T21:04:34.718Z,81.97
2018-10-06T21:07:25.532Z,81.85
2018-10-06T21:10:16.580Z,82.62
2018-10-06T21:13:07.715Z,83.25
2018-10-06T21:15:59.530Z,84.42
2018-10-06T21:18:59.508Z,83.37
2018-10-06T21:21:50.969Z,85.47
2018-10-06T21:24:42.610Z,81.47
2018-10-06T21:27:34.116Z,83.90
2018-10-06T21:30:24.530Z,84.35
2018-10-06T21:33:15.701Z,84.30
2018-10-06T21:36:07.076Z,80.20
2018-10-06T21:38:57.894Z,77.82
2018-10-06T21:41:50.270Z,75.30
2018-10-06T21:44:41.605Z,78.10
2018-10-06T21:47:32.624Z,79.27
2018-10-06T21:50:22.754Z,78.83
2018-10-06T21:53:16.531Z,78.55
2018-10-06T21:56:07.257Z,78.25
2018-10-06T21:58:58.280Z,78.20
2018-10-06T22:01:48.886Z,78.55
2018-10-06T22:04:40.401Z,76.90
2018-10-06T22:07:32.136Z,79.05
2018-10-06T22:10:26.935Z,77.35
2018-10-06T22:13:19.092Z,79.53
2018-10-06T22:16:10.521Z,79.90
2018-10-06T22:19:03.538Z,79.70
2018-10-06T22:21:54.885Z,80.92
2018-10-06T22:24:45.929Z,78.17
2018-10-06T22:27:37.211Z,77.25
2018-10-06T22:30:27.559Z,81.20
2018-10-06T22:33:19.184Z,79.95
2018-10-06T22:36:12.642Z,78.07
2018-10-06T22:39:04.119Z,81.30
2018-10-06T22:41:55.854Z,80.30
2018-10-06T22:44:47.586Z,77.42
2018-10-06T22:47:38.361Z,76.07
2018-10-06T22:50:31.402Z,81.20
2018-10-06T22:54:47.723Z,82.10
2018-10-06T22:57:39.058Z,87.40
2018-10-06T23:00:34.288Z,93.72
2018-10-06T23:03:25.200Z,88.17
2018-10-06T23:06:15.636Z,86.22
2018-10-06T23:09:07.115Z,87.92
2018-10-06T23:12:00.801Z,85.30
2018-10-06T23:14:52.984Z,89.55
2018-10-06T23:17:44.378Z,85.97
2018-10-06T23:20:36.663Z,87.62
2018-10-06T23:23:27.634Z,85.38
2018-10-06T23:26:20.748Z,89.13
2018-10-06T23:29:11.696Z,86.90
2018-10-06T23:32:02.960Z,98.45
2018-10-06T23:34:54.314Z,88.92
2018-10-06T23:37:45.436Z,88.67
2018-10-06T23:40:36.129Z,90.12
2018-10-06T23:43:28.474Z,89.92
2018-10-06T23:46:22.496Z,90.17
2018-10-06T23:49:13.795Z,88.12
2018-10-06T23:52:04.688Z,89.67
2018-10-06T23:54:55.736Z,94.42
2018-10-06T23:57:47.164Z,92.80
